createdAt,value
2017-08-20T00:00:03.265Z,0
2017-08-20T00:05:02.803Z,0
2017-08-20T00:10:03.335Z,0
2017-08-20T00:15:02.824Z,0
2017-08-20T00:20:03.309Z,0
2017-08-20T00:25:02.737Z,0
2017-08-20T00:30:03.088Z,0
2017-08-20T00:35:02.635Z,0
2017-08-20T00:40:03.113Z,0
2017-08-20T00:45:02.668Z,0
2017-08-20T00:50:03.176Z,0
2017-08-20T00:55:02.635Z,0
2017-08-20T01:00:03.084Z,0
2017-08-20T01:05:02.583Z,0
2017-08-20T01:10:03.031Z,0
2017-08-20T01:15:02.617Z,0
2017-08-20T01:20:03.102Z,0
2017-08-20T01:25:02.606Z,0
2017-08-20T01:30:03.146Z,0
2017-08-20T01:35:02.623Z,0
2017-08-20T01:40:03.238Z,0
2017-08-20T01:45:02.671Z,0
2017-08-20T01:50:03.241Z,0
2017-08-20T01:55:02.746Z,0
2017-08-20T02:00:03.188Z,0
2017-08-20T02:05:02.542Z,0
2017-08-20T02:10:03.151Z,0
2017-08-20T02:15:02.545Z,0
2017-08-20T02:20:03.064Z,0
2017-08-20T02:25:02.596Z,0
2017-08-20T02:30:03.103Z,0
2017-08-20T02:35:02.717Z,0
2017-08-20T02:40:03.363Z,0
2017-08-20T02:45:02.753Z,0
2017-08-20T02:50:03.348Z,0
2017-08-20T02:55:02.789Z,0
2017-08-20T03:00:03.313Z,0
2017-08-20T03:05:02.818Z,0
2017-08-20T03:10:03.355Z,0
2017-08-20T03:15:02.779Z,0
2017-08-20T03:20:03.364Z,0
2017-08-20T03:25:02.899Z,0
2017-08-20T03:30:03.316Z,0
2017-08-20T03:35:02.939Z,0
2017-08-20T03:40:03.434Z,0
2017-08-20T03:45:02.989Z,0
2017-08-20T03:50:02.435Z,0
2017-08-20T03:55:02.850Z,0
2017-08-20T04:00:03.471Z,2
2017-08-20T04:05:02.889Z,3
2017-08-20T04:10:03.406Z,6
2017-08-20T04:15:02.970Z,30
2017-08-20T04:20:02.510Z,38
2017-08-20T04:25:02.889Z,55
2017-08-20T04:30:02.465Z,59
2017-08-20T04:35:03.031Z,95
2017-08-20T04:40:02.671Z,221
2017-08-20T04:45:03.112Z,441
2017-08-20T04:50:02.427Z,608
2017-08-20T04:55:02.976Z,743
2017-08-20T05:00:03.397Z,873
2017-08-20T05:05:03.001Z,746
2017-08-20T05:10:02.528Z,745
2017-08-20T05:15:02.992Z,899
2017-08-20T05:20:02.538Z,975
2017-08-20T05:25:02.997Z,1000
2017-08-20T05:30:03.407Z,1000
2017-08-20T05:35:02.874Z,1000
2017-08-20T05:40:03.434Z,1000
2017-08-20T05:45:03.006Z,1000
2017-08-20T05:50:02.651Z,2000
2017-08-20T05:55:03.096Z,2000
2017-08-20T06:00:02.530Z,2000
2017-08-20T06:05:03.069Z,2000
2017-08-20T06:10:02.538Z,2000
2017-08-20T06:15:03.050Z,2000
2017-08-20T06:20:02.546Z,3000
2017-08-20T06:25:03.015Z,3000
2017-08-20T06:30:02.479Z,3000
2017-08-20T06:35:03.078Z,4000
2017-08-20T06:40:02.757Z,4000
2017-08-20T06:45:03.389Z,3000
2017-08-20T06:50:02.977Z,3000
2017-08-20T06:55:02.578Z,3000
2017-08-20T07:00:03.101Z,3000
2017-08-20T07:05:02.663Z,4000
2017-08-20T07:10:03.044Z,3000
2017-08-20T07:15:02.668Z,3000
2017-08-20T07:20:03.145Z,3000
2017-08-20T07:25:02.714Z,4000
2017-08-20T07:30:03.326Z,4000
2017-08-20T07:35:03.017Z,4000
2017-08-20T07:40:02.491Z,4000
2017-08-20T07:45:03.126Z,5000
2017-08-20T07:50:02.533Z,6000
2017-08-20T07:55:03.191Z,6000
2017-08-20T08:00:02.671Z,20000
2017-08-20T08:05:03.322Z,28000
2017-08-20T08:10:02.811Z,35000
2017-08-20T08:15:03.398Z,35000
2017-08-20T08:20:02.856Z,36000
2017-08-20T08:25:02.493Z,39000
2017-08-20T08:30:02.939Z,38000
2017-08-20T08:35:02.461Z,41000
2017-08-20T08:40:02.922Z,40000
2017-08-20T08:45:02.490Z,42000
2017-08-20T08:50:03.099Z,47000
2017-08-20T08:55:02.710Z,20000
2017-08-20T09:00:03.328Z,26000
2017-08-20T09:05:02.945Z,12000
2017-08-20T09:10:02.536Z,12000
2017-08-20T09:15:03.107Z,40000
2017-08-20T09:20:02.587Z,35000
2017-08-20T09:25:03.178Z,32000
2017-08-20T09:30:02.734Z,14000
2017-08-20T09:35:03.321Z,10000
2017-08-20T09:40:02.938Z,13000
2017-08-20T09:45:03.363Z,28000
2017-08-20T09:50:02.877Z,12000
2017-08-20T09:55:03.344Z,33000
2017-08-20T10:00:02.963Z,48000
2017-08-20T10:05:03.433Z,22000
2017-08-20T10:10:02.933Z,9000
2017-08-20T10:15:02.463Z,24000
2017-08-20T10:20:03.014Z,16000
2017-08-20T10:25:02.441Z,16000
2017-08-20T10:30:02.847Z,11000
2017-08-20T10:35:03.278Z,8000
2017-08-20T10:40:02.769Z,9000
2017-08-20T10:45:03.328Z,7000
2017-08-20T10:50:02.896Z,37000
2017-08-20T10:55:02.469Z,43000
2017-08-20T11:00:02.890Z,32000
2017-08-20T11:05:03.431Z,10000
2017-08-20T11:10:02.893Z,8000
2017-08-20T11:15:02.464Z,10000
2017-08-20T11:20:02.973Z,11000
2017-08-20T11:25:02.492Z,9000
2017-08-20T11:30:02.954Z,7000
2017-08-20T11:35:02.512Z,8000
2017-08-20T11:40:02.995Z,8000
2017-08-20T11:45:02.592Z,12000
2017-08-20T11:50:03.045Z,13000
2017-08-20T11:55:02.473Z,14000
2017-08-20T12:00:03.162Z,9000
2017-08-20T12:05:02.701Z,12000
2017-08-20T12:10:03.308Z,11000
2017-08-20T12:15:02.741Z,10000
2017-08-20T12:20:03.272Z,5000
2017-08-20T12:25:02.669Z,8000
2017-08-20T12:30:03.093Z,11000
2017-08-20T12:35:02.739Z,13000
2017-08-20T12:40:03.401Z,12000
2017-08-20T12:45:02.897Z,27000
2017-08-20T12:50:02.432Z,40000
2017-08-20T12:55:02.990Z,36000
2017-08-20T13:00:03.410Z,41000
2017-08-20T13:05:02.852Z,16000
2017-08-20T13:10:03.410Z,40000
2017-08-20T13:15:02.985Z,14000
2017-08-20T13:20:02.467Z,35000
2017-08-20T13:25:03.021Z,37000
2017-08-20T13:30:02.602Z,34000
2017-08-20T13:35:03.226Z,24000
2017-08-20T13:40:02.708Z,18000
2017-08-20T13:45:03.206Z,14000
2017-08-20T13:50:02.660Z,11000
2017-08-20T13:55:03.172Z,32000
2017-08-20T14:00:02.724Z,32000
2017-08-20T14:05:03.162Z,30000
2017-08-20T14:10:02.753Z,10000
2017-08-20T14:15:03.250Z,17000
2017-08-20T14:20:02.725Z,16000
2017-08-20T14:25:03.312Z,18000
2017-08-20T14:30:02.876Z,13000
2017-08-20T14:35:02.445Z,12000
2017-08-20T14:40:03.111Z,7000
2017-08-20T14:45:02.558Z,7000
2017-08-20T14:50:03.088Z,6000
2017-08-20T14:55:02.549Z,6000
2017-08-20T15:00:03.376Z,6000
2017-08-20T15:05:02.905Z,6000
2017-08-20T15:10:02.584Z,5000
2017-08-20T15:15:03.030Z,5000
2017-08-20T15:20:02.560Z,5000
2017-08-20T15:25:02.993Z,5000
2017-08-20T15:30:03.445Z,6000
2017-08-20T15:35:02.878Z,8000
2017-08-20T15:40:02.441Z,16000
2017-08-20T15:45:02.952Z,16000
2017-08-20T15:50:03.397Z,15000
2017-08-20T15:55:02.835Z,15000
2017-08-20T16:00:03.319Z,10000
2017-08-20T16:05:02.903Z,6000
2017-08-20T16:10:03.415Z,13000
2017-08-20T16:15:02.901Z,13000
2017-08-20T16:20:02.417Z,7000
2017-08-20T16:25:03.056Z,5000
2017-08-20T16:30:02.625Z,9000
2017-08-20T16:35:03.081Z,10000
2017-08-20T16:40:02.594Z,9000
2017-08-20T16:45:03.198Z,9000
2017-08-20T16:50:02.734Z,9000
2017-08-20T16:55:03.325Z,7000
2017-08-20T17:00:02.889Z,6000
2017-08-20T17:05:03.375Z,6000
2017-08-20T17:10:03.020Z,6000
2017-08-20T17:15:02.452Z,6000
2017-08-20T17:20:03.122Z,6000
2017-08-20T17:25:02.556Z,2000
2017-08-20T17:30:03.002Z,3000
2017-08-20T17:35:02.618Z,2000
2017-08-20T17:40:03.201Z,2000
2017-08-20T17:45:02.811Z,2000
2017-08-20T17:50:03.431Z,2000
2017-08-20T17:55:02.999Z,2000
2017-08-20T18:00:02.582Z,1000
2017-08-20T18:05:03.014Z,1000
2017-08-20T18:10:02.719Z,1000
2017-08-20T18:15:03.178Z,726
2017-08-20T18:20:02.658Z,614
2017-08-20T18:25:03.105Z,489
2017-08-20T18:30:02.709Z,371
2017-08-20T18:35:03.295Z,258
2017-08-20T18:40:02.792Z,129
2017-08-20T18:45:03.349Z,61
2017-08-20T18:50:02.848Z,51
2017-08-20T18:55:03.361Z,44
2017-08-20T19:00:02.922Z,37
2017-08-20T19:05:02.454Z,19
2017-08-20T19:10:02.929Z,9
2017-08-20T19:15:02.435Z,4
2017-08-20T19:20:02.918Z,2
2017-08-20T19:25:02.509Z,0
2017-08-20T19:30:02.991Z,0
2017-08-20T19:35:02.460Z,0
2017-08-20T19:40:02.938Z,0
2017-08-20T19:45:03.498Z,0
2017-08-20T19:50:03.057Z,0
2017-08-20T19:55:02.666Z,0
2017-08-20T20:00:03.109Z,0
2017-08-20T20:05:02.695Z,0
2017-08-20T20:10:03.368Z,0
2017-08-20T20:15:02.841Z,0
2017-08-20T20:20:03.365Z,0
2017-08-20T20:25:02.935Z,0
2017-08-20T20:30:03.345Z,0
2017-08-20T20:35:02.778Z,0
2017-08-20T20:40:03.328Z,0
2017-08-20T20:45:02.914Z,0
2017-08-20T20:50:03.410Z,0
2017-08-20T20:55:02.885Z,0
2017-08-20T21:10:02.585Z,0
2017-08-20T21:15:03.121Z,0
2017-08-20T21:20:02.589Z,0
2017-08-20T21:25:03.189Z,0
2017-08-20T21:30:02.727Z,0
2017-08-20T21:35:03.269Z,0
2017-08-20T21:40:02.763Z,0
2017-08-20T21:45:03.177Z,0
2017-08-20T21:50:02.569Z,0
2017-08-20T21:55:03.144Z,0
2017-08-20T22:00:02.659Z,0
2017-08-20T22:05:03.199Z,0
2017-08-20T22:10:02.775Z,0
2017-08-20T22:15:03.307Z,0
2017-08-20T22:20:02.926Z,0
2017-08-20T22:25:02.501Z,0
2017-08-20T22:30:03.120Z,0
2017-08-20T22:35:02.692Z,0
2017-08-20T22:40:03.285Z,0
2017-08-20T22:45:02.766Z,0
2017-08-20T22:50:03.328Z,0
2017-08-20T22:55:02.765Z,0
2017-08-20T23:00:03.513Z,0
2017-08-20T23:05:03.086Z,0
2017-08-20T23:10:02.480Z,0
2017-08-20T23:15:03.028Z,0
2017-08-20T23:20:02.512Z,0
2017-08-20T23:25:03.057Z,0
2017-08-20T23:30:02.588Z,0
2017-08-20T23:35:03.098Z,0
2017-08-20T23:40:02.694Z,0
2017-08-20T23:45:03.123Z,0
2017-08-20T23:50:02.762Z,0
2017-08-20T23:55:03.222Z,0
